createdAt,value
2023-01-02T00:04:06.892Z,69.47
2023-01-02T00:09:19.114Z,69.50
2023-01-02T00:14:29.528Z,69.50
2023-01-02T00:19:36.339Z,69.67
2023-01-02T00:24:42.878Z,69.96
2023-01-02T00:30:05.842Z,69.69
2023-01-02T00:35:12.552Z,69.51
2023-01-02T00:40:22.508Z,69.78
2023-01-02T00:45:26.358Z,69.75
2023-01-02T00:50:35.407Z,69.34
2023-01-02T00:55:43.024Z,69.14
2023-01-02T01:00:50.894Z,68.62
2023-01-02T01:05:59.936Z,67.65
2023-01-02T01:11:10.609Z,67.03
2023-01-02T01:16:16.798Z,66.84
2023-01-02T01:21:23.841Z,66.57
2023-01-02T01:26:32.707Z,66.31
2023-01-02T01:31:36.701Z,65.95
2023-01-02T01:36:44.395Z,65.03
2023-01-02T01:41:54.973Z,65.11
2023-01-02T01:47:04.528Z,64.82
2023-01-02T01:52:12.247Z,64.34
2023-01-02T01:57:25.435Z,64.03
2023-01-02T02:02:38.197Z,64.31
2023-01-02T02:07:53.549Z,64.13
2023-01-02T02:13:00.202Z,64.12
2023-01-02T02:18:23.014Z,63.99
2023-01-02T02:24:23.029Z,63.96
2023-01-02T02:30:15.771Z,63.92
2023-01-02T02:35:34.362Z,63.84
2023-01-02T02:40:52.323Z,64.01
2023-01-02T02:46:11.570Z,63.76
2023-01-02T02:51:26.824Z,64.10
2023-01-02T02:56:35.687Z,64.39
2023-01-02T03:01:44.377Z,63.98
2023-01-02T03:07:07.567Z,63.66
2023-01-02T03:12:23.710Z,63.20
2023-01-02T03:17:43.572Z,63.56
2023-01-02T03:22:52.250Z,62.93
2023-01-02T03:28:04.627Z,63.32
2023-01-02T03:33:20.934Z,63.11
2023-01-02T03:43:56.972Z,62.76
2023-01-02T03:49:18.027Z,62.35
2023-01-02T03:54:25.596Z,62.52
2023-01-02T03:59:39.341Z,62.79
2023-01-02T04:04:57.045Z,62.92
2023-01-02T04:10:08.087Z,62.91
2023-01-02T04:15:17.449Z,62.54
2023-01-02T04:20:28.748Z,63.06
2023-01-02T04:25:41.040Z,62.65
2023-01-02T04:30:55.669Z,62.41
2023-01-02T04:36:17.518Z,63.03
2023-01-02T04:46:49.305Z,62.58
2023-01-02T04:52:04.133Z,62.71
2023-01-02T04:57:22.542Z,62.99
2023-01-02T05:02:27.584Z,62.81
2023-01-02T05:07:39.400Z,62.57
2023-01-02T05:12:44.861Z,62.81
2023-01-02T05:17:50.434Z,62.66
2023-01-02T05:23:32.575Z,63.00
2023-01-02T05:28:39.037Z,62.74
2023-01-02T05:33:44.390Z,62.87
2023-01-02T05:38:50.172Z,62.36
2023-01-02T05:43:58.654Z,62.78
2023-01-02T05:49:06.465Z,62.74
2023-01-02T05:54:12.631Z,62.65
2023-01-02T05:59:19.108Z,61.90
2023-01-02T06:04:24.074Z,62.01
2023-01-02T06:09:32.940Z,61.62
2023-01-02T06:14:40.476Z,61.56
2023-01-02T06:19:54.240Z,61.54
2023-01-02T06:25:06.526Z,61.04
2023-01-02T06:30:15.577Z,61.01
2023-01-02T06:35:23.670Z,60.52
2023-01-02T06:40:35.580Z,60.29
2023-01-02T06:45:40.145Z,60.52
2023-01-02T06:50:46.619Z,60.63
2023-01-02T06:56:15.159Z,60.84
2023-01-02T07:01:21.841Z,60.77
2023-01-02T07:06:29.595Z,61.04
2023-01-02T07:11:41.476Z,61.04
2023-01-02T07:16:46.701Z,61.27
2023-01-02T07:21:52.675Z,61.61
2023-01-02T07:27:06.427Z,62.14
2023-01-02T07:32:10.851Z,61.89
2023-01-02T07:37:20.076Z,62.01
2023-01-02T07:42:26.588Z,62.42
2023-01-02T07:47:32.055Z,62.26
2023-01-02T07:52:36.691Z,62.39
2023-01-02T07:57:41.762Z,62.13
2023-01-02T08:02:47.937Z,62.61
2023-01-02T08:07:53.334Z,62.27
2023-01-02T08:13:00.734Z,62.44
2023-01-02T08:18:05.829Z,62.31
2023-01-02T08:23:12.567Z,62.22
2023-01-02T08:28:20.193Z,62.56
2023-01-02T08:33:28.453Z,62.41
2023-01-02T08:38:40.611Z,62.86
2023-01-02T08:43:46.234Z,62.46
2023-01-02T08:48:53.101Z,61.92
2023-01-02T08:54:00.117Z,61.94
2023-01-02T08:59:13.425Z,61.98
2023-01-02T09:04:19.242Z,61.91
2023-01-02T09:09:23.452Z,61.93
2023-01-02T09:14:28.990Z,61.46
2023-01-02T09:19:33.895Z,61.83
2023-01-02T09:24:38.892Z,61.67
2023-01-02T09:29:49.618Z,61.82
2023-01-02T09:34:54.362Z,61.71
2023-01-02T09:39:58.833Z,61.70
2023-01-02T09:45:09.479Z,60.90
2023-01-02T09:50:19.505Z,60.84
2023-01-02T09:55:35.320Z,60.94
2023-01-02T10:00:41.690Z,60.26
2023-01-02T10:06:14.030Z,60.27
2023-01-02T10:11:36.214Z,59.79
2023-01-02T10:16:52.326Z,60.06
2023-01-02T10:22:02.513Z,59.89
2023-01-02T10:27:13.190Z,59.74
2023-01-02T10:32:23.158Z,59.42
2023-01-02T10:37:29.134Z,59.43
2023-01-02T10:42:34.883Z,59.21
2023-01-02T10:47:46.911Z,59.27
2023-01-02T10:52:57.643Z,58.87
2023-01-02T10:58:12.322Z,58.56
2023-01-02T11:03:32.052Z,58.05
2023-01-02T11:08:48.405Z,58.07
2023-01-02T11:13:56.847Z,58.20
2023-01-02T11:19:10.461Z,57.71
2023-01-02T11:24:30.638Z,57.31
2023-01-02T11:29:53.751Z,56.64
2023-01-02T11:35:06.370Z,56.09
2023-01-02T11:40:31.913Z,55.98
2023-01-02T11:45:38.751Z,56.15
2023-01-02T11:50:57.684Z,55.76
2023-01-02T11:56:17.491Z,55.52
2023-01-02T12:01:53.777Z,55.31
2023-01-02T12:07:24.927Z,54.84
2023-01-02T12:13:09.552Z,54.35
2023-01-02T12:18:28.999Z,54.31
2023-01-02T12:24:09.271Z,54.06
2023-01-02T12:29:48.179Z,53.28
2023-01-02T12:35:28.715Z,53.30
2023-01-02T12:40:57.766Z,53.57
2023-01-02T12:46:29.308Z,53.53
2023-01-02T12:51:44.868Z,53.63
2023-01-02T12:57:22.623Z,53.46
2023-01-02T13:03:00.476Z,53.58
2023-01-02T13:08:18.591Z,53.75
2023-01-02T13:13:41.773Z,53.97
2023-01-02T13:19:27.507Z,54.18
2023-01-02T13:24:35.490Z,54.23
2023-01-02T13:30:07.395Z,54.80
2023-01-02T13:40:44.823Z,55.07
2023-01-02T13:46:23.629Z,54.70
2023-01-02T13:57:43.838Z,54.69
2023-01-02T14:03:20.257Z,54.95
2023-01-02T14:08:30.708Z,55.15
2023-01-02T14:13:40.140Z,55.77
2023-01-02T14:19:05.990Z,56.15
2023-01-02T14:24:17.652Z,56.41
2023-01-02T14:29:25.052Z,56.85
2023-01-02T14:34:42.020Z,57.12
2023-01-02T14:39:56.576Z,57.42
2023-01-02T14:45:14.589Z,57.42
2023-01-02T14:50:24.421Z,57.81
2023-01-02T14:55:41.215Z,58.63
2023-01-02T15:00:51.976Z,59.07
2023-01-02T15:06:06.025Z,59.74
2023-01-02T15:11:38.295Z,60.03
2023-01-02T15:16:52.057Z,60.38
2023-01-02T15:22:00.179Z,61.37
2023-01-02T15:27:17.928Z,61.97
2023-01-02T15:32:29.736Z,62.64
2023-01-02T15:37:46.468Z,62.81
2023-01-02T15:43:16.502Z,63.68
2023-01-02T15:48:23.309Z,64.01
2023-01-02T15:53:40.029Z,64.68
2023-01-02T15:58:53.176Z,65.04
2023-01-02T16:04:05.950Z,65.42
2023-01-02T16:09:23.345Z,65.85
2023-01-02T16:14:35.583Z,66.17
2023-01-02T16:19:45.654Z,66.55
2023-01-02T16:25:03.002Z,66.56
2023-01-02T16:30:28.400Z,67.37
2023-01-02T16:35:35.702Z,67.73
2023-01-02T16:41:00.646Z,67.96
2023-01-02T16:46:16.019Z,68.34
2023-01-02T16:51:23.931Z,68.70
2023-01-02T16:56:36.074Z,69.82
2023-01-02T17:01:49.442Z,69.87
2023-01-02T17:07:01.033Z,70.10
2023-01-02T17:12:20.339Z,70.43
2023-01-02T17:17:26.640Z,70.77
2023-01-02T17:22:37.727Z,71.08
2023-01-02T17:27:58.616Z,72.45
2023-01-02T17:33:06.509Z,72.61
2023-01-02T17:38:36.980Z,75.49
2023-01-02T17:44:02.053Z,77.26
2023-01-02T17:49:12.240Z,79.05
2023-01-02T17:54:20.310Z,80.61
2023-01-02T17:59:28.723Z,82.59
2023-01-02T18:04:54.936Z,84.24
2023-01-02T18:10:08.109Z,84.15
2023-01-02T18:15:22.766Z,85.82
2023-01-02T18:20:27.153Z,86.08
2023-01-02T18:25:41.545Z,87.09
2023-01-02T18:30:50.455Z,86.95
2023-01-02T18:36:03.663Z,87.76
2023-01-02T18:41:27.402Z,88.72
2023-01-02T18:47:03.571Z,89.22
2023-01-02T18:52:09.064Z,89.64
2023-01-02T18:57:16.788Z,90.24
2023-01-02T19:02:43.135Z,92.66
2023-01-02T19:08:20.541Z,92.32
2023-01-02T19:13:28.703Z,93.00
2023-01-02T19:18:40.766Z,94.91
2023-01-02T19:23:52.809Z,95.52
2023-01-02T19:28:59.442Z,96.84
2023-01-02T19:34:04.071Z,97.65
2023-01-02T19:39:24.991Z,98.80
2023-01-02T19:44:28.298Z,98.85
2023-01-02T19:49:33.299Z,99.91
2023-01-02T19:54:37.587Z,100.00
2023-01-02T19:59:45.627Z,100.00
2023-01-02T20:04:53.447Z,100.00
2023-01-02T20:09:57.097Z,100.00
2023-01-02T20:15:01.590Z,100.00
2023-01-02T20:20:08.692Z,100.00
2023-01-02T20:25:12.640Z,100.00
2023-01-02T20:30:18.824Z,100.00
2023-01-02T20:35:26.864Z,100.00
2023-01-02T20:40:30.592Z,100.00
2023-01-02T20:45:34.153Z,100.00
2023-01-02T20:50:39.460Z,100.00
2023-01-02T20:55:43.279Z,100.00
2023-01-02T21:00:46.879Z,100.00
2023-01-02T21:05:53.128Z,100.00
2023-01-02T21:10:57.197Z,100.00
2023-01-02T21:16:01.237Z,100.00
2023-01-02T21:21:10.557Z,100.00
2023-01-02T21:26:16.090Z,100.00
2023-01-02T21:31:20.824Z,100.00
2023-01-02T21:36:25.504Z,100.00
2023-01-02T21:41:47.904Z,100.00
2023-01-02T21:46:51.325Z,100.00
2023-01-02T21:51:55.785Z,100.00
2023-01-02T21:56:59.281Z,100.00
2023-01-02T22:02:04.115Z,100.00
2023-01-02T22:12:32.469Z,100.00
2023-01-02T22:17:35.914Z,100.00
2023-01-02T22:22:40.332Z,100.00
2023-01-02T22:27:43.753Z,100.00
2023-01-02T22:32:47.196Z,100.00
2023-01-02T22:37:51.938Z,100.00
2023-01-02T22:43:04.472Z,100.00
2023-01-02T22:48:16.432Z,100.00
2023-01-02T22:53:48.834Z,100.00
2023-01-02T22:58:52.462Z,100.00
2023-01-02T23:03:55.879Z,100.00
2023-01-02T23:09:00.563Z,100.00
2023-01-02T23:14:04.009Z,100.00
2023-01-02T23:19:24.683Z,100.00
2023-01-02T23:24:32.089Z,100.00
2023-01-02T23:29:35.498Z,100.00
2023-01-02T23:34:39.218Z,100.00
2023-01-02T23:39:43.892Z,100.00
2023-01-02T23:44:47.089Z,100.00
2023-01-02T23:49:50.389Z,100.00
2023-01-02T23:54:55.057Z,100.00
2023-01-02T23:59:58.367Z,100.00
